To NAV CANADA Home Page Login to a new session Search on AWWS site Feedback and Comments Disclaimer Vers la page française équivalente Tips FAQ What's new on the site To the Forecasts and Observations / NOTAM section To "File a Flight Plan" website Publications and other links Update of the User's profile FIC Telephone Numbers My Weather Data Folder Route Weather Data Regional Weather Data Local Weather Data To the Forecasts and Observations / NOTAM section
Request Generated 08/30/2016 at 14:56:02 UTC . Weather information available at that time is displayed.

METAR/TAF

LLOYDMINSTER/AB    (show WxCam)

METAR CYLL 301400Z 10008KT 15SM SCT140 BKN250 09/07 A3024 RMK AC3CI4
SLP257=
METAR CYLL 301300Z 10007KT 15SM SCT100 BKN250 06/05 A3022 RMK AC3CI4
SLP253=
METAR CYLL 301200Z AUTO 08007KT 9SM CLR 05/04 A3024 RMK SLP257=

TAF CYLL 301141Z 3012/3024 10006KT P6SM VCSH FEW100 BKN250
FM301700 10010KT P6SM SCT050
RMK FCST BASED ON AUTO OBS. NXT FCST BY 301800Z=
Your time UTC time
Weather data provided by Environment Canada and NAV CANADA